sensor_id;sensor_type;location;lat;lon;timestamp;temperature;humidity
27848;DHT22;15212;48.830;8.730;2023-12-20T00:01:42;6.90;99.90
27848;DHT22;15212;48.830;8.730;2023-12-20T00:04:11;6.90;99.90
27848;DHT22;15212;48.830;8.730;2023-12-20T00:06:39;6.90;99.90
27848;DHT22;15212;48.830;8.730;2023-12-20T00:09:07;6.80;99.90
27848;DHT22;15212;48.830;8.730;2023-12-20T00:11:36;6.80;99.90
27848;DHT22;15212;48.830;8.730;2023-12-20T00:14:05;6.80;99.90
27848;DHT22;15212;48.830;8.730;2023-12-20T00:16:33;6.70;99.90
27848;DHT22;15212;48.830;8.730;2023-12-20T00:19:02;6.70;99.90
27848;DHT22;15212;48.830;8.730;2023-12-20T00:21:30;6.70;99.90
27848;DHT22;15212;48.830;8.730;2023-12-20T00:23:58;6.70;99.90
27848;DHT22;15212;48.830;8.730;2023-12-20T00:26:27;6.70;99.90
27848;DHT22;15212;48.830;8.730;2023-12-20T00:28:55;6.70;99.90
27848;DHT22;15212;48.830;8.730;2023-12-20T00:31:23;6.60;99.90
27848;DHT22;15212;48.830;8.730;2023-12-20T00:33:52;6.60;99.90
27848;DHT22;15212;48.830;8.730;2023-12-20T00:36:21;6.60;99.90
27848;DHT22;15212;48.830;8.730;2023-12-20T00:38:49;6.60;99.90
27848;DHT22;15212;48.830;8.730;2023-12-20T00:41:18;6.50;99.90
27848;DHT22;15212;48.830;8.730;2023-12-20T00:43:46;6.50;99.90
27848;DHT22;15212;48.830;8.730;2023-12-20T00:46:15;6.50;99.90
27848;DHT22;15212;48.830;8.730;2023-12-20T00:48:43;6.50;99.90
27848;DHT22;15212;48.830;8.730;2023-12-20T00:51:12;6.40;99.90
27848;DHT22;15212;48.830;8.730;2023-12-20T00:53:41;6.40;99.90
27848;DHT22;15212;48.830;8.730;2023-12-20T00:56:10;6.40;99.90
27848;DHT22;15212;48.830;8.730;2023-12-20T00:58:38;6.30;99.90
27848;DHT22;15212;48.830;8.730;2023-12-20T01:01:06;6.30;99.90
27848;DHT22;15212;48.830;8.730;2023-12-20T01:03:35;6.30;99.90
27848;DHT22;15212;48.830;8.730;2023-12-20T01:06:03;6.20;99.90
27848;DHT22;15212;48.830;8.730;2023-12-20T01:08:32;6.20;99.90
27848;DHT22;15212;48.830;8.730;2023-12-20T01:11:05;6.20;99.90
27848;DHT22;15212;48.830;8.730;2023-12-20T01:13:34;6.20;99.90
27848;DHT22;15212;48.830;8.730;2023-12-20T01:16:03;6.10;99.90
27848;DHT22;15212;48.830;8.730;2023-12-20T01:18:32;6.10;99.90
27848;DHT22;15212;48.830;8.730;2023-12-20T01:21:03;6.10;99.90
27848;DHT22;15212;48.830;8.730;2023-12-20T01:23:32;6.00;99.90
27848;DHT22;15212;48.830;8.730;2023-12-20T01:26:01;6.00;99.90
27848;DHT22;15212;48.830;8.730;2023-12-20T01:28:31;5.90;99.90
27848;DHT22;15212;48.830;8.730;2023-12-20T01:30:59;5.90;99.90
27848;DHT22;15212;48.830;8.730;2023-12-20T01:33:27;5.90;99.90
27848;DHT22;15212;48.830;8.730;2023-12-20T01:35:56;5.80;99.90
27848;DHT22;15212;48.830;8.730;2023-12-20T01:38:24;5.80;99.90
27848;DHT22;15212;48.830;8.730;2023-12-20T01:40:53;5.80;99.90
27848;DHT22;15212;48.830;8.730;2023-12-20T01:43:21;5.70;99.90
27848;DHT22;15212;48.830;8.730;2023-12-20T01:45:50;5.70;99.90
27848;DHT22;15212;48.830;8.730;2023-12-20T01:48:18;5.60;99.90
27848;DHT22;15212;48.830;8.730;2023-12-20T01:50:48;5.60;99.90
27848;DHT22;15212;48.830;8.730;2023-12-20T01:53:18;5.50;99.90
27848;DHT22;15212;48.830;8.730;2023-12-20T01:55:48;5.50;99.90
27848;DHT22;15212;48.830;8.730;2023-12-20T01:58:19;5.50;99.90
27848;DHT22;15212;48.830;8.730;2023-12-20T02:00:48;5.40;99.90
27848;DHT22;15212;48.830;8.730;2023-12-20T02:03:17;5.40;99.90
27848;DHT22;15212;48.830;8.730;2023-12-20T02:05:47;5.30;99.90
27848;DHT22;15212;48.830;8.730;2023-12-20T02:08:16;5.30;99.90
27848;DHT22;15212;48.830;8.730;2023-12-20T02:10:44;5.30;99.90
27848;DHT22;15212;48.830;8.730;2023-12-20T02:13:13;5.20;99.90
27848;DHT22;15212;48.830;8.730;2023-12-20T02:15:41;5.20;99.90
27848;DHT22;15212;48.830;8.730;2023-12-20T02:18:10;5.20;99.90
27848;DHT22;15212;48.830;8.730;2023-12-20T02:20:40;5.20;99.90
27848;DHT22;15212;48.830;8.730;2023-12-20T02:25:36;5.10;99.90
27848;DHT22;15212;48.830;8.730;2023-12-20T02:28:05;5.00;99.90
27848;DHT22;15212;48.830;8.730;2023-12-20T02:30:34;5.00;99.90
27848;DHT22;15212;48.830;8.730;2023-12-20T02:33:04;5.00;99.90
27848;DHT22;15212;48.830;8.730;2023-12-20T02:35:35;5.00;99.90
27848;DHT22;15212;48.830;8.730;2023-12-20T02:38:04;5.00;99.90
27848;DHT22;15212;48.830;8.730;2023-12-20T02:40:32;5.00;99.90
27848;DHT22;15212;48.830;8.730;2023-12-20T02:43:00;5.00;99.90
27848;DHT22;15212;48.830;8.730;2023-12-20T02:45:29;4.90;99.90
27848;DHT22;15212;48.830;8.730;2023-12-20T02:47:57;4.90;99.90
27848;DHT22;15212;48.830;8.730;2023-12-20T02:50:26;4.90;99.90
27848;DHT22;15212;48.830;8.730;2023-12-20T02:52:54;4.80;99.90
27848;DHT22;15212;48.830;8.730;2023-12-20T02:55:22;4.80;99.90
27848;DHT22;15212;48.830;8.730;2023-12-20T02:57:51;4.80;99.90
27848;DHT22;15212;48.830;8.730;2023-12-20T03:00:19;4.80;99.90
27848;DHT22;15212;48.830;8.730;2023-12-20T03:02:48;4.80;99.90
27848;DHT22;15212;48.830;8.730;2023-12-20T03:05:16;4.80;99.90
27848;DHT22;15212;48.830;8.730;2023-12-20T03:07:44;4.80;99.90
27848;DHT22;15212;48.830;8.730;2023-12-20T03:10:13;4.70;99.90
27848;DHT22;15212;48.830;8.730;2023-12-20T03:12:41;4.70;99.90
27848;DHT22;15212;48.830;8.730;2023-12-20T03:15:10;4.70;99.90
27848;DHT22;15212;48.830;8.730;2023-12-20T03:17:39;4.60;99.90
27848;DHT22;15212;48.830;8.730;2023-12-20T03:20:08;4.60;99.90
27848;DHT22;15212;48.830;8.730;2023-12-20T03:22:37;4.50;99.90
27848;DHT22;15212;48.830;8.730;2023-12-20T03:25:05;4.50;99.90
27848;DHT22;15212;48.830;8.730;2023-12-20T03:27:34;4.50;99.90
27848;DHT22;15212;48.830;8.730;2023-12-20T03:30:05;4.50;99.90
27848;DHT22;15212;48.830;8.730;2023-12-20T03:32:34;4.50;99.90
27848;DHT22;15212;48.830;8.730;2023-12-20T03:35:03;4.50;99.90
27848;DHT22;15212;48.830;8.730;2023-12-20T03:37:31;4.40;99.90
27848;DHT22;15212;48.830;8.730;2023-12-20T03:40:00;4.40;99.90
27848;DHT22;15212;48.830;8.730;2023-12-20T03:42:28;4.40;99.90
27848;DHT22;15212;48.830;8.730;2023-12-20T03:44:57;4.40;99.90
27848;DHT22;15212;48.830;8.730;2023-12-20T03:47:25;4.40;99.90
27848;DHT22;15212;48.830;8.730;2023-12-20T03:49:54;4.40;99.90
27848;DHT22;15212;48.830;8.730;2023-12-20T03:52:22;4.40;99.90
27848;DHT22;15212;48.830;8.730;2023-12-20T03:54:50;4.40;99.90
27848;DHT22;15212;48.830;8.730;2023-12-20T03:57:19;4.40;99.90
27848;DHT22;15212;48.830;8.730;2023-12-20T03:59:47;4.40;99.90
27848;DHT22;15212;48.830;8.730;2023-12-20T04:02:16;4.40;99.90
27848;DHT22;15212;48.830;8.730;2023-12-20T04:04:44;4.40;99.90
27848;DHT22;15212;48.830;8.730;2023-12-20T04:07:13;4.40;99.90
27848;DHT22;15212;48.830;8.730;2023-12-20T04:09:41;4.40;99.90
27848;DHT22;15212;48.830;8.730;2023-12-20T04:12:10;4.40;99.90
27848;DHT22;15212;48.830;8.730;2023-12-20T04:14:38;4.40;99.90
27848;DHT22;15212;48.830;8.730;2023-12-20T04:17:07;4.40;99.90
27848;DHT22;15212;48.830;8.730;2023-12-20T04:19:35;4.40;99.90
27848;DHT22;15212;48.830;8.730;2023-12-20T04:22:04;4.40;99.90
27848;DHT22;15212;48.830;8.730;2023-12-20T04:24:32;4.40;99.90
27848;DHT22;15212;48.830;8.730;2023-12-20T04:27:01;4.40;99.90
27848;DHT22;15212;48.830;8.730;2023-12-20T04:29:29;4.40;99.90
27848;DHT22;15212;48.830;8.730;2023-12-20T04:31:58;4.40;99.90
27848;DHT22;15212;48.830;8.730;2023-12-20T04:34:26;4.40;99.90
27848;DHT22;15212;48.830;8.730;2023-12-20T04:36:55;4.40;99.90
27848;DHT22;15212;48.830;8.730;2023-12-20T04:39:24;4.50;99.90
27848;DHT22;15212;48.830;8.730;2023-12-20T04:41:52;4.50;99.90
27848;DHT22;15212;48.830;8.730;2023-12-20T04:44:21;4.50;99.90
27848;DHT22;15212;48.830;8.730;2023-12-20T04:46:50;4.50;99.90
27848;DHT22;15212;48.830;8.730;2023-12-20T04:49:18;4.50;99.90
27848;DHT22;15212;48.830;8.730;2023-12-20T04:51:47;4.50;99.90
27848;DHT22;15212;48.830;8.730;2023-12-20T04:54:15;4.60;99.90
27848;DHT22;15212;48.830;8.730;2023-12-20T04:56:44;4.60;99.90
27848;DHT22;15212;48.830;8.730;2023-12-20T04:59:12;4.60;99.90
27848;DHT22;15212;48.830;8.730;2023-12-20T05:01:41;4.60;99.90
27848;DHT22;15212;48.830;8.730;2023-12-20T05:04:10;4.60;99.90
27848;DHT22;15212;48.830;8.730;2023-12-20T05:06:38;4.60;99.90
27848;DHT22;15212;48.830;8.730;2023-12-20T05:09:06;4.60;99.90
27848;DHT22;15212;48.830;8.730;2023-12-20T05:11:35;4.60;99.90
27848;DHT22;15212;48.830;8.730;2023-12-20T05:14:04;4.60;99.90
27848;DHT22;15212;48.830;8.730;2023-12-20T05:16:32;4.60;99.90
27848;DHT22;15212;48.830;8.730;2023-12-20T05:19:00;4.60;99.90
27848;DHT22;15212;48.830;8.730;2023-12-20T05:21:30;4.60;99.90
27848;DHT22;15212;48.830;8.730;2023-12-20T05:24:00;4.60;99.90
27848;DHT22;15212;48.830;8.730;2023-12-20T05:26:28;4.60;99.90
27848;DHT22;15212;48.830;8.730;2023-12-20T05:28:57;4.70;99.90
27848;DHT22;15212;48.830;8.730;2023-12-20T05:31:25;4.60;99.90
27848;DHT22;15212;48.830;8.730;2023-12-20T05:33:53;4.70;99.90
27848;DHT22;15212;48.830;8.730;2023-12-20T05:36:22;4.70;99.90
27848;DHT22;15212;48.830;8.730;2023-12-20T05:38:50;4.70;99.90
27848;DHT22;15212;48.830;8.730;2023-12-20T05:41:19;4.70;99.90
27848;DHT22;15212;48.830;8.730;2023-12-20T05:43:48;4.70;99.90
27848;DHT22;15212;48.830;8.730;2023-12-20T05:46:17;4.70;99.90
27848;DHT22;15212;48.830;8.730;2023-12-20T05:48:45;4.70;99.90
27848;DHT22;15212;48.830;8.730;2023-12-20T05:51:13;4.70;99.90
27848;DHT22;15212;48.830;8.730;2023-12-20T05:53:42;4.70;99.90
27848;DHT22;15212;48.830;8.730;2023-12-20T05:56:11;4.70;99.90
27848;DHT22;15212;48.830;8.730;2023-12-20T05:58:39;4.70;99.90
27848;DHT22;15212;48.830;8.730;2023-12-20T06:01:08;4.70;99.90
27848;DHT22;15212;48.830;8.730;2023-12-20T06:03:36;4.60;99.90
27848;DHT22;15212;48.830;8.730;2023-12-20T06:06:06;4.70;99.90
27848;DHT22;15212;48.830;8.730;2023-12-20T06:08:36;4.70;99.90
27848;DHT22;15212;48.830;8.730;2023-12-20T06:11:04;4.70;99.90
27848;DHT22;15212;48.830;8.730;2023-12-20T06:13:33;4.70;99.90
27848;DHT22;15212;48.830;8.730;2023-12-20T06:16:02;4.70;99.90
27848;DHT22;15212;48.830;8.730;2023-12-20T06:18:33;4.70;99.90
27848;DHT22;15212;48.830;8.730;2023-12-20T06:21:03;4.70;99.90
27848;DHT22;15212;48.830;8.730;2023-12-20T06:23:33;4.70;99.90
27848;DHT22;15212;48.830;8.730;2023-12-20T06:26:02;4.70;99.90
27848;DHT22;15212;48.830;8.730;2023-12-20T06:28:30;4.60;99.90
27848;DHT22;15212;48.830;8.730;2023-12-20T06:30:59;4.70;99.90
27848;DHT22;15212;48.830;8.730;2023-12-20T06:33:27;4.70;99.90
27848;DHT22;15212;48.830;8.730;2023-12-20T06:35:58;4.70;99.90
27848;DHT22;15212;48.830;8.730;2023-12-20T06:38:26;4.70;99.90
27848;DHT22;15212;48.830;8.730;2023-12-20T06:40:54;4.70;99.90
27848;DHT22;15212;48.830;8.730;2023-12-20T06:43:24;4.70;99.90
27848;DHT22;15212;48.830;8.730;2023-12-20T06:45:53;4.60;99.90
27848;DHT22;15212;48.830;8.730;2023-12-20T06:48:21;4.60;99.90
27848;DHT22;15212;48.830;8.730;2023-12-20T06:50:50;4.50;99.90
27848;DHT22;15212;48.830;8.730;2023-12-20T06:53:18;4.50;99.90
27848;DHT22;15212;48.830;8.730;2023-12-20T06:55:46;4.40;99.90
27848;DHT22;15212;48.830;8.730;2023-12-20T06:58:15;4.40;99.90
27848;DHT22;15212;48.830;8.730;2023-12-20T07:00:44;4.30;99.90
27848;DHT22;15212;48.830;8.730;2023-12-20T07:03:12;4.30;99.90
27848;DHT22;15212;48.830;8.730;2023-12-20T07:05:41;4.30;99.90
27848;DHT22;15212;48.830;8.730;2023-12-20T07:08:09;4.30;99.90
27848;DHT22;15212;48.830;8.730;2023-12-20T07:10:39;4.30;99.90
27848;DHT22;15212;48.830;8.730;2023-12-20T07:13:08;4.20;99.90
27848;DHT22;15212;48.830;8.730;2023-12-20T07:15:36;4.20;99.90
27848;DHT22;15212;48.830;8.730;2023-12-20T07:18:05;4.20;99.90
27848;DHT22;15212;48.830;8.730;2023-12-20T07:20:33;4.20;99.90
27848;DHT22;15212;48.830;8.730;2023-12-20T07:23:02;4.20;99.90
27848;DHT22;15212;48.830;8.730;2023-12-20T07:25:30;4.10;99.90
27848;DHT22;15212;48.830;8.730;2023-12-20T07:27:59;4.10;99.90
27848;DHT22;15212;48.830;8.730;2023-12-20T07:30:27;4.10;99.90
27848;DHT22;15212;48.830;8.730;2023-12-20T07:32:55;4.10;99.90
27848;DHT22;15212;48.830;8.730;2023-12-20T07:35:24;4.10;99.90
27848;DHT22;15212;48.830;8.730;2023-12-20T07:37:52;4.10;99.90
27848;DHT22;15212;48.830;8.730;2023-12-20T07:40:21;4.10;99.90
27848;DHT22;15212;48.830;8.730;2023-12-20T07:42:50;4.10;99.90
27848;DHT22;15212;48.830;8.730;2023-12-20T07:45:18;4.10;99.90
27848;DHT22;15212;48.830;8.730;2023-12-20T07:47:47;4.10;99.90
27848;DHT22;15212;48.830;8.730;2023-12-20T07:50:16;4.00;99.90
27848;DHT22;15212;48.830;8.730;2023-12-20T07:52:45;4.00;99.90
27848;DHT22;15212;48.830;8.730;2023-12-20T07:55:13;4.00;99.90
27848;DHT22;15212;48.830;8.730;2023-12-20T07:57:41;4.00;99.90
27848;DHT22;15212;48.830;8.730;2023-12-20T08:00:10;4.00;99.90
27848;DHT22;15212;48.830;8.730;2023-12-20T08:02:39;4.00;99.90
27848;DHT22;15212;48.830;8.730;2023-12-20T08:05:08;3.90;99.90
27848;DHT22;15212;48.830;8.730;2023-12-20T08:07:36;3.90;99.90
27848;DHT22;15212;48.830;8.730;2023-12-20T08:10:05;3.90;99.90
27848;DHT22;15212;48.830;8.730;2023-12-20T08:12:34;3.90;99.90
27848;DHT22;15212;48.830;8.730;2023-12-20T08:15:03;4.00;99.90
27848;DHT22;15212;48.830;8.730;2023-12-20T08:17:31;3.90;99.90
27848;DHT22;15212;48.830;8.730;2023-12-20T08:20:00;3.90;99.90
27848;DHT22;15212;48.830;8.730;2023-12-20T08:22:28;3.90;99.90
27848;DHT22;15212;48.830;8.730;2023-12-20T08:24:56;3.90;99.90
27848;DHT22;15212;48.830;8.730;2023-12-20T08:27:25;3.90;99.90
27848;DHT22;15212;48.830;8.730;2023-12-20T08:29:53;3.80;99.90
27848;DHT22;15212;48.830;8.730;2023-12-20T08:32:24;3.80;99.90
27848;DHT22;15212;48.830;8.730;2023-12-20T08:34:55;3.80;99.90
27848;DHT22;15212;48.830;8.730;2023-12-20T08:37:23;3.90;99.90
27848;DHT22;15212;48.830;8.730;2023-12-20T08:39:51;4.00;99.90
27848;DHT22;15212;48.830;8.730;2023-12-20T08:42:20;4.00;99.90
27848;DHT22;15212;48.830;8.730;2023-12-20T08:44:48;4.10;99.90
27848;DHT22;15212;48.830;8.730;2023-12-20T08:47:16;4.10;99.90
27848;DHT22;15212;48.830;8.730;2023-12-20T08:49:46;4.10;99.90
27848;DHT22;15212;48.830;8.730;2023-12-20T08:52:14;4.10;99.90
27848;DHT22;15212;48.830;8.730;2023-12-20T08:54:43;4.10;99.90
27848;DHT22;15212;48.830;8.730;2023-12-20T08:57:11;4.10;99.90
27848;DHT22;15212;48.830;8.730;2023-12-20T08:59:40;4.10;99.90
27848;DHT22;15212;48.830;8.730;2023-12-20T09:02:08;4.10;99.90
27848;DHT22;15212;48.830;8.730;2023-12-20T09:04:36;4.10;99.90
27848;DHT22;15212;48.830;8.730;2023-12-20T09:07:05;4.10;99.90
27848;DHT22;15212;48.830;8.730;2023-12-20T09:09:34;4.10;99.90
27848;DHT22;15212;48.830;8.730;2023-12-20T09:12:02;4.10;99.90
27848;DHT22;15212;48.830;8.730;2023-12-20T09:14:31;4.20;99.90
27848;DHT22;15212;48.830;8.730;2023-12-20T09:16:59;4.20;99.90
27848;DHT22;15212;48.830;8.730;2023-12-20T09:19:29;4.30;99.90
27848;DHT22;15212;48.830;8.730;2023-12-20T09:21:58;4.30;99.90
27848;DHT22;15212;48.830;8.730;2023-12-20T09:24:26;4.30;99.90
27848;DHT22;15212;48.830;8.730;2023-12-20T09:26:54;4.30;99.90
27848;DHT22;15212;48.830;8.730;2023-12-20T09:29:23;4.40;99.90
27848;DHT22;15212;48.830;8.730;2023-12-20T09:31:52;4.40;99.90
27848;DHT22;15212;48.830;8.730;2023-12-20T09:34:20;4.40;99.90
27848;DHT22;15212;48.830;8.730;2023-12-20T09:36:49;4.40;99.90
27848;DHT22;15212;48.830;8.730;2023-12-20T09:39:18;4.40;99.90
27848;DHT22;15212;48.830;8.730;2023-12-20T09:44:30;4.40;99.90
27848;DHT22;15212;48.830;8.730;2023-12-20T09:47:03;4.40;99.90
27848;DHT22;15212;48.830;8.730;2023-12-20T09:49:33;4.40;99.90
27848;DHT22;15212;48.830;8.730;2023-12-20T09:52:02;4.40;99.90
27848;DHT22;15212;48.830;8.730;2023-12-20T09:54:31;4.30;99.90
27848;DHT22;15212;48.830;8.730;2023-12-20T09:57:00;4.30;99.90
27848;DHT22;15212;48.830;8.730;2023-12-20T09:59:28;4.20;99.90
27848;DHT22;15212;48.830;8.730;2023-12-20T10:01:57;4.20;99.90
27848;DHT22;15212;48.830;8.730;2023-12-20T10:04:26;4.20;99.90
27848;DHT22;15212;48.830;8.730;2023-12-20T10:06:54;4.10;99.90
27848;DHT22;15212;48.830;8.730;2023-12-20T10:09:24;4.10;99.90
27848;DHT22;15212;48.830;8.730;2023-12-20T10:11:55;4.20;99.90
27848;DHT22;15212;48.830;8.730;2023-12-20T10:14:24;4.10;99.90
27848;DHT22;15212;48.830;8.730;2023-12-20T10:16:52;4.10;99.90
27848;DHT22;15212;48.830;8.730;2023-12-20T10:19:22;4.10;99.90
27848;DHT22;15212;48.830;8.730;2023-12-20T10:21:50;4.10;99.90
27848;DHT22;15212;48.830;8.730;2023-12-20T10:24:18;4.10;99.90
27848;DHT22;15212;48.830;8.730;2023-12-20T10:26:47;4.10;99.90
27848;DHT22;15212;48.830;8.730;2023-12-20T10:29:15;4.10;99.90
27848;DHT22;15212;48.830;8.730;2023-12-20T10:31:44;4.10;99.90
27848;DHT22;15212;48.830;8.730;2023-12-20T10:34:12;4.20;99.90
27848;DHT22;15212;48.830;8.730;2023-12-20T10:36:40;4.20;99.90
27848;DHT22;15212;48.830;8.730;2023-12-20T10:39:10;4.30;99.90
27848;DHT22;15212;48.830;8.730;2023-12-20T10:41:39;4.30;99.90
27848;DHT22;15212;48.830;8.730;2023-12-20T10:44:09;4.30;99.90
27848;DHT22;15212;48.830;8.730;2023-12-20T10:46:39;4.30;99.90
27848;DHT22;15212;48.830;8.730;2023-12-20T10:49:10;4.40;99.90
27848;DHT22;15212;48.830;8.730;2023-12-20T10:51:39;4.30;99.90
27848;DHT22;15212;48.830;8.730;2023-12-20T10:54:07;4.30;99.90
27848;DHT22;15212;48.830;8.730;2023-12-20T10:56:37;4.30;99.90
27848;DHT22;15212;48.830;8.730;2023-12-20T10:59:07;4.30;99.90
27848;DHT22;15212;48.830;8.730;2023-12-20T11:01:40;4.30;99.90
27848;DHT22;15212;48.830;8.730;2023-12-20T11:04:11;4.30;99.90
27848;DHT22;15212;48.830;8.730;2023-12-20T11:06:54;4.20;99.90
27848;DHT22;15212;48.830;8.730;2023-12-20T11:09:28;4.20;99.90
27848;DHT22;15212;48.830;8.730;2023-12-20T11:12:26;4.20;99.90
27848;DHT22;15212;48.830;8.730;2023-12-20T11:14:55;4.30;99.90
27848;DHT22;15212;48.830;8.730;2023-12-20T11:17:27;4.30;99.90
27848;DHT22;15212;48.830;8.730;2023-12-20T11:22:32;4.50;99.90
27848;DHT22;15212;48.830;8.730;2023-12-20T11:25:06;4.50;99.90
27848;DHT22;15212;48.830;8.730;2023-12-20T11:27:42;4.40;99.90
27848;DHT22;15212;48.830;8.730;2023-12-20T11:30:12;4.40;99.90
27848;DHT22;15212;48.830;8.730;2023-12-20T11:32:43;4.30;99.90
27848;DHT22;15212;48.830;8.730;2023-12-20T11:37:47;4.40;99.90
27848;DHT22;15212;48.830;8.730;2023-12-20T11:40:17;4.50;99.90
27848;DHT22;15212;48.830;8.730;2023-12-20T11:42:50;4.50;99.90
27848;DHT22;15212;48.830;8.730;2023-12-20T11:45:23;4.60;99.90
27848;DHT22;15212;48.830;8.730;2023-12-20T11:47:53;4.60;99.90
27848;DHT22;15212;48.830;8.730;2023-12-20T11:50:24;4.70;99.90
27848;DHT22;15212;48.830;8.730;2023-12-20T11:52:53;4.70;99.90
27848;DHT22;15212;48.830;8.730;2023-12-20T11:55:23;4.80;99.90
27848;DHT22;15212;48.830;8.730;2023-12-20T11:57:52;4.80;99.90
27848;DHT22;15212;48.830;8.730;2023-12-20T12:00:20;4.80;99.90
27848;DHT22;15212;48.830;8.730;2023-12-20T12:02:58;4.70;99.90
27848;DHT22;15212;48.830;8.730;2023-12-20T12:05:30;4.70;99.90
27848;DHT22;15212;48.830;8.730;2023-12-20T12:07:59;4.60;99.90
27848;DHT22;15212;48.830;8.730;2023-12-20T12:10:28;4.60;99.90
27848;DHT22;15212;48.830;8.730;2023-12-20T12:12:57;4.60;99.90
27848;DHT22;15212;48.830;8.730;2023-12-20T12:15:25;4.60;99.90
27848;DHT22;15212;48.830;8.730;2023-12-20T12:17:55;4.60;99.90
27848;DHT22;15212;48.830;8.730;2023-12-20T12:20:24;4.60;99.90
27848;DHT22;15212;48.830;8.730;2023-12-20T12:23:03;4.50;99.90
27848;DHT22;15212;48.830;8.730;2023-12-20T12:25:38;4.50;99.90
27848;DHT22;15212;48.830;8.730;2023-12-20T12:28:04;4.50;99.90
27848;DHT22;15212;48.830;8.730;2023-12-20T12:30:32;4.50;99.90
27848;DHT22;15212;48.830;8.730;2023-12-20T12:33:00;4.40;99.90
27848;DHT22;15212;48.830;8.730;2023-12-20T12:35:30;4.50;99.90
27848;DHT22;15212;48.830;8.730;2023-12-20T12:37:59;4.40;99.90
27848;DHT22;15212;48.830;8.730;2023-12-20T12:40:29;4.40;99.90
27848;DHT22;15212;48.830;8.730;2023-12-20T12:42:58;4.40;99.90
27848;DHT22;15212;48.830;8.730;2023-12-20T12:45:26;4.30;99.90
27848;DHT22;15212;48.830;8.730;2023-12-20T12:47:54;4.20;99.90
27848;DHT22;15212;48.830;8.730;2023-12-20T12:50:23;4.30;99.90
27848;DHT22;15212;48.830;8.730;2023-12-20T12:52:51;4.20;99.90
27848;DHT22;15212;48.830;8.730;2023-12-20T12:55:20;4.30;99.90
27848;DHT22;15212;48.830;8.730;2023-12-20T12:57:48;4.30;99.90
27848;DHT22;15212;48.830;8.730;2023-12-20T13:00:17;4.20;99.90
27848;DHT22;15212;48.830;8.730;2023-12-20T13:02:46;4.30;99.90
27848;DHT22;15212;48.830;8.730;2023-12-20T13:05:14;4.30;99.90
27848;DHT22;15212;48.830;8.730;2023-12-20T13:07:44;4.30;99.90
27848;DHT22;15212;48.830;8.730;2023-12-20T13:10:12;4.30;99.90
27848;DHT22;15212;48.830;8.730;2023-12-20T13:12:43;4.30;99.90
27848;DHT22;15212;48.830;8.730;2023-12-20T13:15:12;4.30;99.90
27848;DHT22;15212;48.830;8.730;2023-12-20T13:17:40;4.30;99.90
27848;DHT22;15212;48.830;8.730;2023-12-20T13:20:09;4.40;99.90
27848;DHT22;15212;48.830;8.730;2023-12-20T13:22:37;4.40;99.90
27848;DHT22;15212;48.830;8.730;2023-12-20T13:25:06;4.30;99.90
27848;DHT22;15212;48.830;8.730;2023-12-20T13:27:34;4.30;99.90
27848;DHT22;15212;48.830;8.730;2023-12-20T13:30:04;4.40;99.90
27848;DHT22;15212;48.830;8.730;2023-12-20T13:32:33;4.30;99.90
27848;DHT22;15212;48.830;8.730;2023-12-20T13:35:02;4.30;99.90
27848;DHT22;15212;48.830;8.730;2023-12-20T13:37:31;4.30;99.90
27848;DHT22;15212;48.830;8.730;2023-12-20T13:39:59;4.30;99.90
27848;DHT22;15212;48.830;8.730;2023-12-20T13:42:29;4.30;99.90
27848;DHT22;15212;48.830;8.730;2023-12-20T13:44:57;4.30;99.90
27848;DHT22;15212;48.830;8.730;2023-12-20T13:47:26;4.30;99.90
27848;DHT22;15212;48.830;8.730;2023-12-20T13:49:55;4.20;99.90
27848;DHT22;15212;48.830;8.730;2023-12-20T13:52:24;4.20;99.90
27848;DHT22;15212;48.830;8.730;2023-12-20T13:54:52;4.20;99.90
27848;DHT22;15212;48.830;8.730;2023-12-20T13:57:20;4.20;99.90
27848;DHT22;15212;48.830;8.730;2023-12-20T13:59:49;4.20;99.90
27848;DHT22;15212;48.830;8.730;2023-12-20T14:02:17;4.10;99.90
27848;DHT22;15212;48.830;8.730;2023-12-20T14:04:46;4.10;99.90
27848;DHT22;15212;48.830;8.730;2023-12-20T14:07:14;4.10;99.90
27848;DHT22;15212;48.830;8.730;2023-12-20T14:09:42;4.00;99.90
27848;DHT22;15212;48.830;8.730;2023-12-20T14:12:12;4.00;99.90
27848;DHT22;15212;48.830;8.730;2023-12-20T14:14:41;4.00;99.90
27848;DHT22;15212;48.830;8.730;2023-12-20T14:17:11;3.90;99.90
27848;DHT22;15212;48.830;8.730;2023-12-20T14:19:39;3.90;99.90
27848;DHT22;15212;48.830;8.730;2023-12-20T14:22:08;3.90;99.90
27848;DHT22;15212;48.830;8.730;2023-12-20T14:24:36;3.90;99.90
27848;DHT22;15212;48.830;8.730;2023-12-20T14:27:04;3.90;99.90
27848;DHT22;15212;48.830;8.730;2023-12-20T14:29:33;3.90;99.90
27848;DHT22;15212;48.830;8.730;2023-12-20T14:32:01;3.90;99.90
27848;DHT22;15212;48.830;8.730;2023-12-20T14:34:31;3.90;99.90
27848;DHT22;15212;48.830;8.730;2023-12-20T14:37:00;3.90;99.90
27848;DHT22;15212;48.830;8.730;2023-12-20T14:39:28;3.90;99.90
27848;DHT22;15212;48.830;8.730;2023-12-20T14:41:56;4.00;99.90
27848;DHT22;15212;48.830;8.730;2023-12-20T14:44:25;4.00;99.90
27848;DHT22;15212;48.830;8.730;2023-12-20T14:46:53;4.00;99.90
27848;DHT22;15212;48.830;8.730;2023-12-20T14:49:21;4.00;99.90
27848;DHT22;15212;48.830;8.730;2023-12-20T14:51:50;4.00;99.90
27848;DHT22;15212;48.830;8.730;2023-12-20T14:54:18;3.90;99.90
27848;DHT22;15212;48.830;8.730;2023-12-20T14:56:47;3.90;99.90
27848;DHT22;15212;48.830;8.730;2023-12-20T14:59:16;3.90;99.90
27848;DHT22;15212;48.830;8.730;2023-12-20T15:01:45;3.90;99.90
27848;DHT22;15212;48.830;8.730;2023-12-20T15:04:14;3.90;99.90
27848;DHT22;15212;48.830;8.730;2023-12-20T15:06:42;3.80;99.90
27848;DHT22;15212;48.830;8.730;2023-12-20T15:09:11;3.80;99.90
27848;DHT22;15212;48.830;8.730;2023-12-20T15:11:40;3.80;99.90
27848;DHT22;15212;48.830;8.730;2023-12-20T15:14:08;3.70;99.90
27848;DHT22;15212;48.830;8.730;2023-12-20T15:16:36;3.70;99.90
27848;DHT22;15212;48.830;8.730;2023-12-20T15:19:05;3.70;99.90
27848;DHT22;15212;48.830;8.730;2023-12-20T15:21:34;3.70;99.90
27848;DHT22;15212;48.830;8.730;2023-12-20T15:24:04;3.60;99.90
27848;DHT22;15212;48.830;8.730;2023-12-20T15:26:37;3.60;99.90
27848;DHT22;15212;48.830;8.730;2023-12-20T15:29:06;3.60;99.90
27848;DHT22;15212;48.830;8.730;2023-12-20T15:31:41;3.60;99.90
27848;DHT22;15212;48.830;8.730;2023-12-20T15:34:11;3.60;99.90
27848;DHT22;15212;48.830;8.730;2023-12-20T15:36:40;3.60;99.90
27848;DHT22;15212;48.830;8.730;2023-12-20T15:39:09;3.50;99.90
27848;DHT22;15212;48.830;8.730;2023-12-20T15:41:39;3.60;99.90
27848;DHT22;15212;48.830;8.730;2023-12-20T15:44:08;3.50;99.90
27848;DHT22;15212;48.830;8.730;2023-12-20T15:46:37;3.50;99.90
27848;DHT22;15212;48.830;8.730;2023-12-20T15:49:06;3.50;99.90
27848;DHT22;15212;48.830;8.730;2023-12-20T15:51:36;3.50;99.90
27848;DHT22;15212;48.830;8.730;2023-12-20T15:54:05;3.40;99.90
27848;DHT22;15212;48.830;8.730;2023-12-20T15:56:34;3.40;99.90
27848;DHT22;15212;48.830;8.730;2023-12-20T15:59:03;3.40;99.90
27848;DHT22;15212;48.830;8.730;2023-12-20T16:01:31;3.30;99.90
27848;DHT22;15212;48.830;8.730;2023-12-20T16:04:02;3.40;99.90
27848;DHT22;15212;48.830;8.730;2023-12-20T16:06:30;3.30;99.90